Time;durP1;ratioP1;P1;durP2;ratioP2;P2;SDS_P1;SDS_P2;PMS_P1;PMS_P2;Temp;Humidity;BMP_temperature;BMP_pressure;BME280_temperature;BME280_humidity;BME280_pressure;Samples;Min_cycle;Max_cycle;Signal;HPM_P1;HPM_P2
2022/11/22 00:01:19;;;;;;;6.03;4.33;;;;;;;;;;4974326;28;20220;-87
2022/11/22 00:03:48;;;;;;;4.10;3.70;;;;;;;;;;4974350;28;20228;-87
2022/11/22 00:06:16;;;;;;;6.77;3.50;;;;;;;;;;4974541;28;20209;-87
2022/11/22 00:08:44;;;;;;;10.70;7.43;;;;;;;;;;4974170;28;20227;-87
2022/11/22 00:11:14;;;;;;;10.63;8.10;;;;;;;;;;4974191;28;20228;-88
2022/11/22 00:13:42;;;;;;;7.23;4.73;;;;;;;;;;4975116;28;20253;-88
2022/11/22 00:16:11;;;;;;;10.00;7.37;;;;;;;;;;4974065;28;20208;-87
2022/11/22 00:18:39;;;;;;;7.13;4.97;;;;;;;;;;4975022;28;20232;-89
2022/11/22 00:21:08;;;;;;;4.03;3.17;;;;;;;;;;4970949;28;20202;-87
2022/11/22 00:23:36;;;;;;;10.80;7.27;;;;;;;;;;4968240;28;20228;-87
2022/11/22 00:26:05;;;;;;;10.57;8.73;;;;;;;;;;4961528;28;20213;-88
2022/11/22 00:28:35;;;;;;;14.27;10.47;;;;;;;;;;4973836;28;20213;-87
2022/11/22 00:31:04;;;;;;;11.97;7.80;;;;;;;;;;4973744;28;20200;-88
2022/11/22 00:33:32;;;;;;;10.43;7.90;;;;;;;;;;4974132;28;20220;-88
2022/11/22 00:36:00;;;;;;;11.77;9.07;;;;;;;;;;4973657;28;20197;-87
2022/11/22 00:38:29;;;;;;;13.40;9.93;;;;;;;;;;4972777;28;20233;-88
2022/11/22 00:40:57;;;;;;;16.00;10.87;;;;;;;;;;4973575;28;20666;-87
2022/11/22 00:43:26;;;;;;;14.30;11.47;;;;;;;;;;4960586;28;20205;-88
2022/11/22 00:45:56;;;;;;;13.33;11.93;;;;;;;;;;4973587;28;20204;-88
2022/11/22 00:48:24;;;;;;;8.50;7.67;;;;;;;;;;4973548;28;20287;-88
2022/11/22 00:50:52;;;;;;;14.50;12.83;;;;;;;;;;4973862;28;20360;-88
2022/11/22 00:53:21;;;;;;;14.60;13.07;;;;;;;;;;4973533;28;20271;-88
2022/11/22 00:55:49;;;;;;;21.33;11.30;;;;;;;;;;4973531;28;20233;-87
2022/11/22 00:58:18;;;;;;;16.60;12.63;;;;;;;;;;4973201;28;20194;-88
2022/11/22 01:00:46;;;;;;;16.90;14.80;;;;;;;;;;4973362;28;20228;-88
2022/11/22 01:03:22;;;;;;;17.17;14.83;;;;;;;;;;4974218;28;20227;-88
2022/11/22 01:05:50;;;;;;;19.57;13.83;;;;;;;;;;4974553;28;20243;-88
2022/11/22 01:08:18;;;;;;;16.37;14.67;;;;;;;;;;4973536;28;20213;-88
2022/11/22 01:10:47;;;;;;;17.73;14.10;;;;;;;;;;4974451;28;20215;-88
2022/11/22 01:13:15;;;;;;;15.60;13.60;;;;;;;;;;4973526;28;20209;-87
2022/11/22 01:15:44;;;;;;;13.80;10.57;;;;;;;;;;4973618;28;20220;-88
2022/11/22 01:18:13;;;;;;;12.40;9.33;;;;;;;;;;4973413;28;20193;-88
2022/11/22 01:20:42;;;;;;;19.30;15.33;;;;;;;;;;4973061;28;20207;-88
2022/11/22 01:23:11;;;;;;;20.50;13.83;;;;;;;;;;4973456;28;20278;-88
2022/11/22 01:25:42;;;;;;;21.93;17.97;;;;;;;;;;4973859;28;20248;-88
2022/11/22 01:28:11;;;;;;;21.40;16.97;;;;;;;;;;4974281;28;20345;-88
2022/11/22 01:30:39;;;;;;;18.93;13.90;;;;;;;;;;4973254;28;20255;-87
2022/11/22 01:33:08;;;;;;;19.43;14.20;;;;;;;;;;4974128;28;20263;-88
2022/11/22 01:35:36;;;;;;;20.33;17.37;;;;;;;;;;4973184;28;20197;-88
2022/11/22 01:38:06;;;;;;;16.83;14.40;;;;;;;;;;4973029;28;20201;-88
2022/11/22 01:40:34;;;;;;;21.00;17.87;;;;;;;;;;4972966;28;20240;-88
2022/11/22 01:43:03;;;;;;;23.87;18.63;;;;;;;;;;4974250;28;20271;-88
2022/11/22 01:45:42;;;;;;;19.17;16.13;;;;;;;;;;4972632;28;20236;-88
2022/11/22 01:48:26;;;;;;;20.13;18.00;;;;;;;;;;4972718;28;20216;-88
2022/11/22 01:50:57;;;;;;;20.87;16.00;;;;;;;;;;4974408;28;20251;-88
2022/11/22 01:53:29;;;;;;;25.60;15.47;;;;;;;;;;4973786;28;20267;-88
2022/11/22 01:55:58;;;;;;;10.17;9.20;;;;;;;;;;4976718;28;20209;-88
2022/11/22 01:58:27;;;;;;;15.70;14.10;;;;;;;;;;4976889;28;20267;-88
2022/11/22 02:00:56;;;;;;;16.40;11.90;;;;;;;;;;4977843;28;20626;-87
2022/11/22 02:03:25;;;;;;;19.27;16.40;;;;;;;;;;4977520;28;20266;-88
2022/11/22 02:05:54;;;;;;;18.27;12.90;;;;;;;;;;4976172;28;20237;-88
2022/11/22 02:08:25;;;;;;;15.27;12.70;;;;;;;;;;4976163;28;20251;-87
2022/11/22 02:10:56;;;;;;;16.37;13.57;;;;;;;;;;4976336;28;20232;-88
2022/11/22 02:13:25;;;;;;;17.23;10.83;;;;;;;;;;4976331;28;20205;-88
2022/11/22 02:15:53;;;;;;;16.33;12.43;;;;;;;;;;4975948;28;20205;-88
2022/11/22 02:18:22;;;;;;;14.70;11.03;;;;;;;;;;4973005;28;20224;-88
2022/11/22 02:20:50;;;;;;;13.47;9.33;;;;;;;;;;4975108;28;20228;-88
2022/11/22 02:23:24;;;;;;;10.07;7.40;;;;;;;;;;4976458;28;20220;-88
2022/11/22 02:25:58;;;;;;;12.77;10.67;;;;;;;;;;4977309;28;20248;-88
2022/11/22 02:28:27;;;;;;;15.23;8.70;;;;;;;;;;4977400;28;20259;-89
2022/11/22 02:30:55;;;;;;;10.53;9.47;;;;;;;;;;4977120;28;20197;-88
2022/11/22 02:33:24;;;;;;;15.70;10.47;;;;;;;;;;4975845;28;20255;-88
2022/11/22 02:35:52;;;;;;;11.97;10.60;;;;;;;;;;4975698;28;20228;-88
2022/11/22 02:38:23;;;;;;;15.10;10.13;;;;;;;;;;4974412;28;20633;-89
2022/11/22 02:40:53;;;;;;;12.63;8.60;;;;;;;;;;4965128;28;20241;-88
2022/11/22 02:43:24;;;;;;;17.23;8.40;;;;;;;;;;4975885;28;20240;-88
2022/11/22 02:45:53;;;;;;;16.63;9.53;;;;;;;;;;4975976;28;20232;-87
2022/11/22 02:48:22;;;;;;;14.50;10.33;;;;;;;;;;4974898;28;20225;-88
2022/11/22 02:50:50;;;;;;;13.03;7.37;;;;;;;;;;4975536;28;20264;-88
2022/11/22 02:53:18;;;;;;;14.27;8.57;;;;;;;;;;4975847;28;20209;-89
2022/11/22 02:55:47;;;;;;;16.03;9.60;;;;;;;;;;4975667;28;20223;-88
2022/11/22 02:58:15;;;;;;;15.20;10.13;;;;;;;;;;4975298;28;20287;-89
2022/11/22 03:00:45;;;;;;;14.10;7.13;;;;;;;;;;4975613;28;20264;-87
2022/11/22 03:03:13;;;;;;;14.63;9.10;;;;;;;;;;4975471;28;20201;-88
2022/11/22 03:05:41;;;;;;;17.83;9.07;;;;;;;;;;4975429;28;20328;-87
2022/11/22 03:08:10;;;;;;;15.07;9.70;;;;;;;;;;4975138;28;20217;-87
2022/11/22 03:10:38;;;;;;;15.40;8.17;;;;;;;;;;4975561;28;20220;-87
2022/11/22 03:13:06;;;;;;;20.30;9.63;;;;;;;;;;4964142;28;20263;-88
2022/11/22 03:15:35;;;;;;;14.93;8.50;;;;;;;;;;4975143;28;20249;-87
2022/11/22 03:18:05;;;;;;;16.27;10.43;;;;;;;;;;4975412;28;20205;-87
2022/11/22 03:20:33;;;;;;;16.77;8.87;;;;;;;;;;4974858;28;20197;-88
2022/11/22 03:23:01;;;;;;;10.73;6.47;;;;;;;;;;4975049;28;20221;-87
2022/11/22 03:25:30;;;;;;;19.50;9.27;;;;;;;;;;4976062;28;20205;-88
2022/11/22 03:27:58;;;;;;;16.50;8.57;;;;;;;;;;4975489;28;20206;-87
2022/11/22 03:30:27;;;;;;;11.23;7.70;;;;;;;;;;4975332;28;20221;-87
2022/11/22 03:32:56;;;;;;;16.30;6.43;;;;;;;;;;4975176;28;20236;-88
2022/11/22 03:35:25;;;;;;;8.20;5.63;;;;;;;;;;4974692;28;20193;-87
2022/11/22 03:37:54;;;;;;;14.57;8.93;;;;;;;;;;4976149;28;20205;-88
2022/11/22 03:40:22;;;;;;;14.97;7.63;;;;;;;;;;4974688;28;20240;-88
2022/11/22 03:42:51;;;;;;;14.93;7.50;;;;;;;;;;4976075;28;20228;-88
2022/11/22 03:45:19;;;;;;;13.27;7.37;;;;;;;;;;4974571;28;20244;-88
2022/11/22 03:47:47;;;;;;;12.07;7.00;;;;;;;;;;4972937;28;20208;-87
2022/11/22 03:50:16;;;;;;;16.27;6.73;;;;;;;;;;4973765;28;20264;-87
2022/11/22 03:52:46;;;;;;;11.80;5.73;;;;;;;;;;4973575;28;20268;-87
2022/11/22 03:55:14;;;;;;;19.03;7.10;;;;;;;;;;4974674;28;20284;-89
2022/11/22 03:57:43;;;;;;;13.37;6.90;;;;;;;;;;4974392;28;20274;-89
2022/11/22 04:00:12;;;;;;;16.00;6.37;;;;;;;;;;4975495;28;20275;-88
2022/11/22 04:02:40;;;;;;;15.87;7.67;;;;;;;;;;4974716;28;20204;-89
2022/11/22 04:05:09;;;;;;;15.20;6.10;;;;;;;;;;4974263;28;20217;-88
2022/11/22 04:07:37;;;;;;;11.80;6.03;;;;;;;;;;4973996;28;20197;-88
2022/11/22 04:10:08;;;;;;;9.27;5.27;;;;;;;;;;4974013;28;20224;-88
2022/11/22 04:12:36;;;;;;;16.93;6.53;;;;;;;;;;4974282;28;20197;-89
2022/11/22 04:15:07;;;;;;;13.97;6.83;;;;;;;;;;4974280;28;20197;-89
2022/11/22 04:17:44;;;;;;;15.27;6.47;;;;;;;;;;4973640;28;20267;-88
2022/11/22 04:23:00;;;;;;;10.63;6.87;;;;;;;;;;4975080;28;20293;-88
2022/11/22 04:25:31;;;;;;;16.53;5.77;;;;;;;;;;4973809;28;20205;-88
2022/11/22 04:27:59;;;;;;;16.23;6.20;;;;;;;;;;4973957;28;20225;-89
2022/11/22 04:33:11;;;;;;;10.17;5.17;;;;;;;;;;4962461;28;20209;-89
2022/11/22 04:35:40;;;;;;;13.60;5.43;;;;;;;;;;4974618;28;20217;-89
2022/11/22 04:38:08;;;;;;;8.87;5.10;;;;;;;;;;4974072;28;20212;-88
2022/11/22 04:40:38;;;;;;;12.23;5.77;;;;;;;;;;4971901;28;20238;-88
2022/11/22 04:45:53;;;;;;;10.93;4.23;;;;;;;;;;4974817;28;20359;-88
2022/11/22 04:48:21;;;;;;;11.30;5.47;;;;;;;;;;4973691;28;20240;-89
2022/11/22 04:53:36;;;;;;;14.27;5.33;;;;;;;;;;4973610;28;20204;-89
2022/11/22 04:56:06;;;;;;;11.90;5.17;;;;;;;;;;4973391;28;20205;-88
2022/11/22 04:58:34;;;;;;;14.60;5.13;;;;;;;;;;4973251;28;20205;-86
2022/11/22 05:01:02;;;;;;;9.80;4.57;;;;;;;;;;4973541;28;20214;-86
2022/11/22 05:03:31;;;;;;;9.73;4.53;;;;;;;;;;4973289;28;20280;-86
2022/11/22 05:06:01;;;;;;;10.80;4.43;;;;;;;;;;4974687;28;20211;-88
2022/11/22 05:08:30;;;;;;;10.37;4.53;;;;;;;;;;4970434;28;20202;-87
2022/11/22 05:10:59;;;;;;;12.27;4.57;;;;;;;;;;4964767;28;20236;-87
2022/11/22 05:13:30;;;;;;;9.30;3.90;;;;;;;;;;4973295;28;20204;-87
2022/11/22 05:15:59;;;;;;;12.60;5.20;;;;;;;;;;4973642;28;20233;-88
2022/11/22 05:18:27;;;;;;;13.93;4.93;;;;;;;;;;4974351;28;20292;-87
2022/11/22 05:20:56;;;;;;;13.77;5.70;;;;;;;;;;4973460;28;20232;-87
2022/11/22 05:26:11;;;;;;;14.07;5.57;;;;;;;;;;4973298;28;20220;-88
2022/11/22 05:28:41;;;;;;;8.23;4.43;;;;;;;;;;4974758;28;20228;-88
2022/11/22 05:31:10;;;;;;;11.50;4.87;;;;;;;;;;4977066;28;20241;-88
2022/11/22 05:33:39;;;;;;;9.80;4.73;;;;;;;;;;4977465;28;20201;-87
2022/11/22 05:36:07;;;;;;;12.17;4.07;;;;;;;;;;4977040;28;20224;-88
2022/11/22 05:38:36;;;;;;;8.23;3.97;;;;;;;;;;4977618;28;20263;-88
2022/11/22 05:41:06;;;;;;;9.43;4.27;;;;;;;;;;4976306;28;20240;-87
2022/11/22 05:43:34;;;;;;;11.83;4.00;;;;;;;;;;4976222;28;20243;-87
2022/11/22 05:46:08;;;;;;;8.27;3.70;;;;;;;;;;4975678;28;20213;-87
2022/11/22 05:48:37;;;;;;;8.60;3.80;;;;;;;;;;4975540;28;20197;-87
2022/11/22 05:51:06;;;;;;;10.60;4.60;;;;;;;;;;4975291;28;20243;-87
2022/11/22 05:53:34;;;;;;;14.43;5.27;;;;;;;;;;4976835;28;20256;-87
2022/11/22 05:56:06;;;;;;;13.40;5.20;;;;;;;;;;4975624;28;20200;-86
2022/11/22 05:58:35;;;;;;;15.27;6.17;;;;;;;;;;4974174;28;20229;-87
2022/11/22 06:01:04;;;;;;;13.17;4.50;;;;;;;;;;4975807;28;20228;-87
2022/11/22 06:03:34;;;;;;;8.83;5.23;;;;;;;;;;4975173;28;20249;-88
2022/11/22 06:06:02;;;;;;;11.53;6.20;;;;;;;;;;4975502;28;20223;-87
2022/11/22 06:08:31;;;;;;;12.67;5.70;;;;;;;;;;4974995;28;20220;-88
2022/11/22 06:11:04;;;;;;;13.17;6.73;;;;;;;;;;4975634;28;20303;-87
2022/11/22 06:13:36;;;;;;;12.93;5.83;;;;;;;;;;4974941;28;20208;-87
2022/11/22 06:16:05;;;;;;;12.40;5.90;;;;;;;;;;4975483;28;20255;-86
2022/11/22 06:18:35;;;;;;;11.77;6.13;;;;;;;;;;4975180;28;20204;-87
2022/11/22 06:21:05;;;;;;;12.23;5.83;;;;;;;;;;4975067;28;20216;-87
2022/11/22 06:23:34;;;;;;;10.67;5.63;;;;;;;;;;4976174;28;20229;-87
2022/11/22 06:26:03;;;;;;;12.87;6.30;;;;;;;;;;4976658;28;20223;-86
2022/11/22 06:28:32;;;;;;;15.30;6.90;;;;;;;;;;4976345;28;20280;-86
2022/11/22 06:31:01;;;;;;;15.30;6.37;;;;;;;;;;4973681;28;20213;-87
2022/11/22 06:33:30;;;;;;;10.73;7.17;;;;;;;;;;4972667;28;20193;-88
2022/11/22 06:36:04;;;;;;;13.37;8.30;;;;;;;;;;4972570;28;20228;-88
2022/11/22 06:38:32;;;;;;;13.97;7.57;;;;;;;;;;4975074;28;20268;-87
2022/11/22 06:41:01;;;;;;;13.17;8.17;;;;;;;;;;4937008;28;1101708;-87
2022/11/22 06:43:30;;;;;;;9.70;6.93;;;;;;;;;;4977360;28;20232;-87
2022/11/22 06:45:59;;;;;;;13.23;8.30;;;;;;;;;;4976662;28;20248;-87
2022/11/22 06:48:29;;;;;;;12.57;8.10;;;;;;;;;;4975945;28;20324;-86
2022/11/22 06:50:59;;;;;;;14.57;7.40;;;;;;;;;;4976670;28;20221;-88
2022/11/22 06:53:29;;;;;;;14.33;6.50;;;;;;;;;;4975550;28;20243;-88
2022/11/22 06:56:15;;;;;;;11.10;8.00;;;;;;;;;;4976640;28;20205;-87
2022/11/22 06:58:44;;;;;;;9.33;5.70;;;;;;;;;;4975403;28;20231;-87
2022/11/22 07:01:13;;;;;;;11.23;7.03;;;;;;;;;;4975483;28;20247;-88
2022/11/22 07:03:43;;;;;;;15.03;8.73;;;;;;;;;;4975338;28;20228;-88
2022/11/22 07:06:12;;;;;;;13.47;7.20;;;;;;;;;;4977165;28;20197;-87
2022/11/22 07:08:42;;;;;;;13.90;8.37;;;;;;;;;;4975745;28;20292;-87
2022/11/22 07:11:11;;;;;;;14.23;8.40;;;;;;;;;;4976772;28;20312;-87
2022/11/22 07:13:40;;;;;;;9.30;7.20;;;;;;;;;;4975715;28;20283;-88
2022/11/22 07:16:10;;;;;;;13.27;10.83;;;;;;;;;;4975637;28;20197;-87
2022/11/22 07:18:39;;;;;;;11.00;7.30;;;;;;;;;;4977073;28;20204;-87
2022/11/22 07:21:08;;;;;;;10.50;8.20;;;;;;;;;;4976802;28;20220;-87
2022/11/22 07:23:43;;;;;;;9.70;7.00;;;;;;;;;;4975326;28;20272;-87
2022/11/22 07:26:11;;;;;;;9.40;4.97;;;;;;;;;;4975087;28;20205;-87
2022/11/22 07:28:40;;;;;;;11.67;7.33;;;;;;;;;;4976021;28;20345;-88
2022/11/22 07:31:10;;;;;;;14.70;8.03;;;;;;;;;;4976577;28;20275;-87
2022/11/22 07:33:38;;;;;;;15.37;10.53;;;;;;;;;;4975579;28;20201;-88
2022/11/22 07:36:07;;;;;;;12.07;8.70;;;;;;;;;;4975072;28;20232;-88
2022/11/22 07:38:36;;;;;;;10.87;9.77;;;;;;;;;;4975270;28;20217;-87
2022/11/22 07:41:07;;;;;;;17.70;11.83;;;;;;;;;;4975061;28;20225;-88
2022/11/22 07:43:35;;;;;;;13.87;11.80;;;;;;;;;;4975474;28;20197;-87
2022/11/22 07:46:07;;;;;;;9.60;7.80;;;;;;;;;;4970349;28;20206;-87
2022/11/22 07:48:36;;;;;;;13.73;10.70;;;;;;;;;;4985917;28;20215;-87
2022/11/22 07:51:05;;;;;;;15.83;13.43;;;;;;;;;;4975671;28;20295;-87
2022/11/22 07:53:34;;;;;;;14.40;10.03;;;;;;;;;;4975301;28;20197;-88
2022/11/22 07:56:03;;;;;;;16.33;11.17;;;;;;;;;;4976640;28;20284;-85
2022/11/22 07:58:33;;;;;;;11.90;10.33;;;;;;;;;;4975502;28;20204;-86
2022/11/22 08:01:07;;;;;;;13.93;10.67;;;;;;;;;;4976584;28;20193;-86
2022/11/22 08:03:35;;;;;;;9.93;7.97;;;;;;;;;;4975977;28;20254;-86
2022/11/22 08:06:05;;;;;;;14.03;8.43;;;;;;;;;;4976391;28;20273;-86
2022/11/22 08:08:34;;;;;;;14.67;10.87;;;;;;;;;;4975851;28;20220;-86
2022/11/22 08:11:03;;;;;;;13.90;9.67;;;;;;;;;;4976105;28;20228;-86
2022/11/22 08:13:33;;;;;;;8.17;6.90;;;;;;;;;;4971112;28;20264;-86
2022/11/22 08:16:02;;;;;;;10.20;8.73;;;;;;;;;;4967863;28;20228;-87
2022/11/22 08:18:34;;;;;;;8.33;7.47;;;;;;;;;;4975148;28;20205;-87
2022/11/22 08:21:03;;;;;;;12.43;8.27;;;;;;;;;;4962696;28;20206;-87
2022/11/22 08:23:31;;;;;;;18.53;9.83;;;;;;;;;;4963723;28;20205;-87
2022/11/22 08:26:00;;;;;;;13.47;10.07;;;;;;;;;;4974911;28;20223;-86
2022/11/22 08:28:28;;;;;;;10.17;8.33;;;;;;;;;;4974722;28;20209;-86
2022/11/22 08:31:03;;;;;;;11.60;7.60;;;;;;;;;;4973151;28;20218;-87
2022/11/22 08:33:31;;;;;;;9.83;7.27;;;;;;;;;;4974843;28;20232;-87
2022/11/22 08:36:00;;;;;;;10.13;6.47;;;;;;;;;;4975632;28;20212;-86
2022/11/22 08:38:28;;;;;;;5.20;4.50;;;;;;;;;;4966132;28;20256;-87
2022/11/22 08:40:57;;;;;;;11.37;8.80;;;;;;;;;;4972597;28;20236;-86
2022/11/22 08:43:26;;;;;;;14.07;8.83;;;;;;;;;;4975576;28;20205;-87
2022/11/22 08:45:56;;;;;;;8.33;7.43;;;;;;;;;;4971569;28;20197;-87
2022/11/22 08:48:26;;;;;;;13.87;6.80;;;;;;;;;;4967281;28;20292;-86
2022/11/22 08:50:54;;;;;;;8.03;7.23;;;;;;;;;;4974558;28;20205;-86
2022/11/22 08:53:23;;;;;;;12.47;5.80;;;;;;;;;;4974248;28;20263;-87
2022/11/22 08:55:52;;;;;;;10.43;7.60;;;;;;;;;;4974272;28;20205;-87
2022/11/22 08:58:20;;;;;;;9.20;7.03;;;;;;;;;;4974589;28;20215;-86
2022/11/22 09:00:49;;;;;;;9.93;7.77;;;;;;;;;;4962111;28;20281;-86
2022/11/22 09:03:19;;;;;;;9.00;7.63;;;;;;;;;;4974144;28;20201;-87
2022/11/22 09:05:49;;;;;;;10.90;4.67;;;;;;;;;;4974669;28;20259;-87
2022/11/22 09:08:38;;;;;;;11.20;7.27;;;;;;;;;;4974460;28;20259;-86
2022/11/22 09:11:13;;;;;;;10.73;6.87;;;;;;;;;;4974946;28;20264;-86
2022/11/22 09:13:42;;;;;;;8.83;7.27;;;;;;;;;;4962215;28;20207;-86
2022/11/22 09:16:11;;;;;;;10.50;7.07;;;;;;;;;;4974510;28;20212;-86
2022/11/22 09:18:40;;;;;;;11.03;8.13;;;;;;;;;;4974503;28;20205;-86
2022/11/22 09:21:14;;;;;;;8.50;6.97;;;;;;;;;;4974816;28;20205;-86
2022/11/22 09:23:43;;;;;;;8.30;7.50;;;;;;;;;;4974739;28;20224;-86
2022/11/22 09:26:13;;;;;;;7.47;6.73;;;;;;;;;;4974081;28;20852;-86
2022/11/22 09:28:41;;;;;;;9.77;7.57;;;;;;;;;;4971252;28;20205;-86
2022/11/22 09:31:10;;;;;;;8.30;7.30;;;;;;;;;;4958674;28;20193;-86
2022/11/22 09:33:40;;;;;;;9.37;7.90;;;;;;;;;;4973716;28;20228;-85
2022/11/22 09:36:10;;;;;;;9.03;7.83;;;;;;;;;;4969694;28;20212;-85
2022/11/22 09:38:39;;;;;;;11.63;8.03;;;;;;;;;;4956063;28;20205;-87
2022/11/22 09:41:17;;;;;;;9.27;8.17;;;;;;;;;;4972756;28;20232;-86
2022/11/22 09:43:50;;;;;;;9.33;7.37;;;;;;;;;;4973894;28;20232;-86
2022/11/22 09:46:23;;;;;;;7.27;5.50;;;;;;;;;;4973802;28;20211;-87
2022/11/22 09:48:57;;;;;;;9.27;7.20;;;;;;;;;;4973944;28;20209;-87
2022/11/22 09:51:29;;;;;;;7.30;6.50;;;;;;;;;;4974294;28;20200;-86
2022/11/22 09:54:02;;;;;;;7.70;5.00;;;;;;;;;;4975598;28;20209;-86
2022/11/22 09:56:31;;;;;;;11.07;6.03;;;;;;;;;;4974480;28;20209;-85
2022/11/22 09:59:03;;;;;;;8.50;6.47;;;;;;;;;;4976028;28;20197;-86
2022/11/22 10:01:37;;;;;;;9.83;7.23;;;;;;;;;;4975537;28;20201;-86
2022/11/22 10:04:09;;;;;;;8.30;6.47;;;;;;;;;;4962828;28;20313;-86
2022/11/22 10:06:39;;;;;;;5.80;4.77;;;;;;;;;;4972863;28;20281;-83
2022/11/22 10:09:19;;;;;;;8.23;5.97;;;;;;;;;;4963730;28;20205;-87
2022/11/22 10:11:50;;;;;;;10.03;6.87;;;;;;;;;;4974838;28;20209;-87
2022/11/22 10:14:26;;;;;;;11.10;8.40;;;;;;;;;;4965851;28;20236;-86
2022/11/22 10:16:57;;;;;;;8.73;7.83;;;;;;;;;;4972035;28;20252;-87
2022/11/22 10:19:30;;;;;;;8.87;7.97;;;;;;;;;;4972176;28;20236;-87
2022/11/22 10:22:02;;;;;;;6.40;4.53;;;;;;;;;;4977223;28;20193;-86
2022/11/22 10:24:32;;;;;;;8.03;5.63;;;;;;;;;;4975577;28;20193;-86
2022/11/22 10:27:02;;;;;;;7.50;6.67;;;;;;;;;;4964005;28;20201;-84
2022/11/22 10:29:35;;;;;;;8.03;6.90;;;;;;;;;;4972476;28;20200;-84
2022/11/22 10:32:10;;;;;;;7.53;6.67;;;;;;;;;;4973316;28;20239;-85
2022/11/22 10:34:48;;;;;;;7.83;6.60;;;;;;;;;;4965232;28;20193;-86
2022/11/22 10:37:21;;;;;;;9.97;6.73;;;;;;;;;;4966410;28;20209;-85
2022/11/22 10:40:08;;;;;;;6.03;4.77;;;;;;;;;;4971910;28;20252;-85
2022/11/22 10:42:47;;;;;;;10.40;5.40;;;;;;;;;;4965103;28;20216;-86
2022/11/22 10:45:18;;;;;;;10.47;7.17;;;;;;;;;;4968668;28;20201;-85
2022/11/22 10:47:50;;;;;;;7.27;6.10;;;;;;;;;;4968591;28;20208;-85
2022/11/22 10:50:22;;;;;;;9.47;6.90;;;;;;;;;;4972434;28;20209;-86
2022/11/22 10:52:57;;;;;;;8.73;5.87;;;;;;;;;;4973494;28;20288;-84
2022/11/22 10:55:37;;;;;;;9.20;5.87;;;;;;;;;;4965313;28;20208;-86
2022/11/22 10:58:08;;;;;;;9.80;5.93;;;;;;;;;;4966138;28;20225;-85
2022/11/22 11:00:40;;;;;;;9.23;4.87;;;;;;;;;;4970017;28;20206;-85
2022/11/22 11:03:14;;;;;;;5.70;4.33;;;;;;;;;;4969136;28;20204;-85
2022/11/22 11:05:46;;;;;;;6.03;5.43;;;;;;;;;;4968071;28;20197;-85
2022/11/22 11:08:36;;;;;;;9.97;5.90;;;;;;;;;;4965474;28;20205;-86
2022/11/22 11:11:27;;;;;;;7.40;4.93;;;;;;;;;;4990781;28;20220;-85
2022/11/22 11:13:57;;;;;;;9.10;4.50;;;;;;;;;;4976872;28;20225;-86
2022/11/22 11:16:26;;;;;;;7.73;3.33;;;;;;;;;;4972465;28;20208;-85
2022/11/22 11:18:57;;;;;;;4.93;4.43;;;;;;;;;;4974679;28;20200;-86
2022/11/22 11:21:27;;;;;;;5.57;4.17;;;;;;;;;;4976535;28;20220;-85
2022/11/22 11:23:55;;;;;;;9.57;5.37;;;;;;;;;;4972737;28;20209;-86
2022/11/22 11:26:26;;;;;;;6.40;5.20;;;;;;;;;;4970499;28;20205;-85
2022/11/22 11:29:09;;;;;;;4.80;4.30;;;;;;;;;;4988166;28;20260;-86
2022/11/22 11:31:44;;;;;;;5.53;4.53;;;;;;;;;;4973035;28;20205;-85
2022/11/22 11:34:17;;;;;;;9.77;5.73;;;;;;;;;;4974565;28;20216;-84
2022/11/22 11:36:45;;;;;;;5.13;4.63;;;;;;;;;;4974116;28;20268;-84
2022/11/22 11:39:21;;;;;;;6.93;5.20;;;;;;;;;;4971240;28;20208;-85
2022/11/22 11:41:49;;;;;;;4.63;3.67;;;;;;;;;;4974386;28;20323;-84
2022/11/22 11:44:27;;;;;;;4.97;4.07;;;;;;;;;;4967297;28;20209;-83
2022/11/22 11:46:58;;;;;;;9.17;5.10;;;;;;;;;;4965786;28;20202;-83
2022/11/22 11:49:31;;;;;;;8.30;4.50;;;;;;;;;;4964345;28;20226;-83
2022/11/22 11:52:02;;;;;;;8.43;4.73;;;;;;;;;;4960750;28;20260;-84
2022/11/22 11:54:35;;;;;;;8.50;5.13;;;;;;;;;;4983553;28;20219;-84
2022/11/22 11:57:03;;;;;;;6.13;4.50;;;;;;;;;;4965614;28;20260;-84
2022/11/22 11:59:42;;;;;;;4.73;3.47;;;;;;;;;;4957584;28;20209;-85
2022/11/22 12:02:13;;;;;;;6.23;3.90;;;;;;;;;;4971808;28;20209;-84
2022/11/22 12:04:48;;;;;;;5.70;3.93;;;;;;;;;;4961346;28;20217;-84
2022/11/22 12:07:19;;;;;;;4.67;2.93;;;;;;;;;;4960444;28;20255;-82
2022/11/22 12:09:49;;;;;;;3.67;3.33;;;;;;;;;;4969421;28;20304;-84
2022/11/22 12:12:29;;;;;;;5.10;3.80;;;;;;;;;;4965694;28;20220;-84
2022/11/22 12:15:02;;;;;;;5.90;4.57;;;;;;;;;;4972097;28;20304;-85
2022/11/22 12:17:55;;;;;;;7.53;4.70;;;;;;;;;;4965619;28;20217;-84
2022/11/22 12:20:26;;;;;;;9.77;4.23;;;;;;;;;;4966649;28;20209;-85
2022/11/22 12:22:59;;;;;;;4.57;3.00;;;;;;;;;;4970252;28;20212;-83
2022/11/22 12:25:31;;;;;;;8.83;4.37;;;;;;;;;;4967950;28;20220;-83
2022/11/22 12:28:03;;;;;;;5.50;4.60;;;;;;;;;;4965963;28;20272;-84
2022/11/22 12:30:35;;;;;;;5.20;4.60;;;;;;;;;;4969017;28;20211;-85
2022/11/22 12:33:07;;;;;;;5.63;4.67;;;;;;;;;;4966196;28;20201;-84
2022/11/22 12:35:40;;;;;;;6.23;4.87;;;;;;;;;;4963019;28;20220;-86
2022/11/22 12:38:11;;;;;;;8.17;5.03;;;;;;;;;;4961018;28;20213;-86
2022/11/22 12:40:42;;;;;;;6.27;4.83;;;;;;;;;;4968437;28;20232;-85
2022/11/22 12:43:15;;;;;;;5.77;4.77;;;;;;;;;;4970975;28;20205;-85
2022/11/22 12:45:44;;;;;;;7.83;5.17;;;;;;;;;;4966359;28;20200;-85
2022/11/22 12:48:18;;;;;;;5.80;5.20;;;;;;;;;;4968731;28;20205;-85
2022/11/22 12:50:49;;;;;;;4.57;4.13;;;;;;;;;;4967516;28;20197;-84
2022/11/22 12:53:21;;;;;;;6.73;5.10;;;;;;;;;;4971998;28;20225;-86
2022/11/22 12:55:52;;;;;;;4.57;3.63;;;;;;;;;;4970398;28;20212;-86
2022/11/22 12:58:23;;;;;;;5.90;4.43;;;;;;;;;;4963698;28;20238;-84
2022/11/22 13:00:59;;;;;;;9.00;4.40;;;;;;;;;;4969374;28;20211;-84
2022/11/22 13:03:31;;;;;;;6.73;5.07;;;;;;;;;;4970543;28;20224;-85
2022/11/22 13:06:01;;;;;;;7.13;5.37;;;;;;;;;;4971245;28;20200;-85
2022/11/22 13:08:34;;;;;;;5.73;4.23;;;;;;;;;;4971997;28;20224;-85
2022/11/22 13:11:06;;;;;;;7.27;4.57;;;;;;;;;;4964287;28;20205;-85
2022/11/22 13:13:36;;;;;;;5.63;4.77;;;;;;;;;;4978297;28;20300;-86
2022/11/22 13:16:08;;;;;;;6.73;5.33;;;;;;;;;;4972172;28;20248;-86
2022/11/22 13:18:40;;;;;;;5.03;4.47;;;;;;;;;;4970703;28;20229;-86
2022/11/22 13:21:11;;;;;;;5.83;4.60;;;;;;;;;;4972847;28;20216;-86
2022/11/22 13:23:49;;;;;;;5.83;4.70;;;;;;;;;;4975169;28;20288;-85
2022/11/22 13:26:21;;;;;;;3.90;3.23;;;;;;;;;;4966938;28;20204;-85
2022/11/22 13:28:50;;;;;;;3.97;3.57;;;;;;;;;;4973762;28;20284;-86
2022/11/22 13:31:19;;;;;;;5.93;3.83;;;;;;;;;;4968082;28;20524;-86
2022/11/22 13:33:56;;;;;;;5.50;3.50;;;;;;;;;;4969925;28;20216;-86
2022/11/22 13:36:36;;;;;;;5.13;4.20;;;;;;;;;;4963319;28;20204;-85
2022/11/22 13:39:06;;;;;;;6.33;4.30;;;;;;;;;;4967345;28;20201;-84
2022/11/22 13:41:38;;;;;;;7.27;4.50;;;;;;;;;;4973158;28;20240;-86
2022/11/22 13:44:37;;;;;;;6.37;4.67;;;;;;;;;;4973298;28;20268;-87
2022/11/22 13:47:21;;;;;;;4.77;4.33;;;;;;;;;;4938826;28;20224;-87
2022/11/22 13:49:52;;;;;;;5.30;4.10;;;;;;;;;;4993631;28;20224;-87
2022/11/22 13:52:28;;;;;;;6.80;2.87;;;;;;;;;;4976392;28;20296;-86
2022/11/22 13:55:06;;;;;;;4.83;4.43;;;;;;;;;;4971009;28;20236;-87
2022/11/22 13:57:44;;;;;;;4.73;3.10;;;;;;;;;;4967656;28;20206;-84
2022/11/22 14:00:34;;;;;;;6.83;2.43;;;;;;;;;;4968653;28;20205;-86
2022/11/22 14:03:31;;;;;;;7.07;3.93;;;;;;;;;;4975872;28;20228;-86
2022/11/22 14:09:12;;;;;;;4.77;4.37;;;;;;;;;;5103319;27;1257624;-85
2022/11/22 14:11:47;;;;;;;5.93;3.20;;;;;;;;;;5089624;28;20231;-86
2022/11/22 14:14:19;;;;;;;4.20;3.80;;;;;;;;;;5118548;28;20257;-85
2022/11/22 14:16:54;;;;;;;4.63;4.07;;;;;;;;;;5118902;28;20255;-85
2022/11/22 14:19:34;;;;;;;4.00;3.57;;;;;;;;;;5117379;28;20221;-85
2022/11/22 14:22:18;;;;;;;3.53;3.23;;;;;;;;;;5115741;28;20203;-85
2022/11/22 14:25:02;;;;;;;4.77;3.53;;;;;;;;;;5136438;28;20191;-85
2022/11/22 14:27:43;;;;;;;4.10;3.80;;;;;;;;;;5113910;28;20252;-85
2022/11/22 14:30:17;;;;;;;3.77;3.40;;;;;;;;;;5110911;28;20199;-86
2022/11/22 14:32:50;;;;;;;4.10;3.70;;;;;;;;;;5109314;28;20188;-86
2022/11/22 14:35:24;;;;;;;3.27;2.70;;;;;;;;;;5132738;28;20226;-86
2022/11/22 14:38:02;;;;;;;3.53;3.20;;;;;;;;;;5112789;28;20210;-86
2022/11/22 14:40:32;;;;;;;2.97;2.73;;;;;;;;;;5117629;28;20235;-86
2022/11/22 14:43:24;;;;;;;3.37;1.60;;;;;;;;;;5118794;28;20200;-79
2022/11/22 14:45:59;;;;;;;4.87;3.67;;;;;;;;;;5106472;28;20191;-88
2022/11/22 14:48:32;;;;;;;7.23;4.17;;;;;;;;;;5115017;28;20211;-86
2022/11/22 14:51:07;;;;;;;3.63;3.33;;;;;;;;;;5114817;28;20208;-87
2022/11/22 14:53:37;;;;;;;3.80;3.50;;;;;;;;;;5113544;28;20287;-88
2022/11/22 14:56:08;;;;;;;3.67;2.80;;;;;;;;;;5128241;27;20199;-87
2022/11/22 14:58:38;;;;;;;3.53;2.70;;;;;;;;;;5126865;28;20188;-85
2022/11/22 15:01:22;;;;;;;3.97;3.00;;;;;;;;;;5109038;28;20218;-86
2022/11/22 15:04:23;;;;;;;3.43;3.13;;;;;;;;;;5107372;28;20335;-86
2022/11/22 15:07:19;;;;;;;3.67;3.07;;;;;;;;;;5023525;28;20231;-87
2022/11/22 15:10:32;;;;;;;5.63;3.37;;;;;;;;;;5020723;28;20203;-87
2022/11/22 15:13:18;;;;;;;4.10;3.40;;;;;;;;;;5120531;28;20291;-87
2022/11/22 15:15:48;;;;;;;3.67;3.17;;;;;;;;;;5108357;28;20231;-88